createdAt,value
2023-01-19T00:00:28.960Z,-3.65
2023-01-19T00:02:00.847Z,-3.65
2023-01-19T00:03:32.558Z,-3.63
2023-01-19T00:05:07.556Z,-3.69
2023-01-19T00:06:39.531Z,-3.71
2023-01-19T00:08:17.854Z,-3.74
2023-01-19T00:09:50.277Z,-3.69
2023-01-19T00:11:22.451Z,-3.71
2023-01-19T00:12:54.408Z,-3.74
2023-01-19T00:14:26.285Z,-3.70
2023-01-19T00:15:58.267Z,-3.73
2023-01-19T00:17:30.380Z,-3.74
2023-01-19T00:19:02.255Z,-3.76
2023-01-19T00:20:35.683Z,-3.81
2023-01-19T00:22:07.777Z,-3.80
2023-01-19T00:23:39.595Z,-3.79
2023-01-19T00:25:11.375Z,-3.68
2023-01-19T00:26:43.097Z,-3.72
2023-01-19T00:28:17.413Z,-3.74
2023-01-19T00:29:49.103Z,-3.82
2023-01-19T00:31:21.654Z,-3.87
2023-01-19T00:32:53.598Z,-3.87
2023-01-19T00:34:25.238Z,-3.92
2023-01-19T00:35:56.898Z,-3.95
2023-01-19T00:37:28.720Z,-3.96
2023-01-19T00:39:01.013Z,-4.00
2023-01-19T00:40:32.698Z,-4.03
2023-01-19T00:42:22.876Z,-4.06
2023-01-19T00:43:54.558Z,-4.12
2023-01-19T00:45:26.406Z,-4.14
2023-01-19T00:46:58.139Z,-4.14
2023-01-19T00:48:30.730Z,-4.15
2023-01-19T00:50:02.979Z,-4.13
2023-01-19T00:51:34.765Z,-4.16
2023-01-19T00:53:07.003Z,-4.17
2023-01-19T00:54:38.687Z,-4.18
2023-01-19T00:56:10.285Z,-4.18
2023-01-19T00:57:43.001Z,-4.14
2023-01-19T00:59:15.038Z,-4.10
2023-01-19T01:00:47.026Z,-4.11
2023-01-19T01:02:18.909Z,-4.05
2023-01-19T01:03:50.692Z,-3.99
2023-01-19T01:05:22.839Z,-4.01
2023-01-19T01:06:54.651Z,-4.06
2023-01-19T01:08:26.449Z,-4.11
2023-01-19T01:09:58.103Z,-4.12
2023-01-19T01:11:29.783Z,-4.15
2023-01-19T01:13:20.288Z,-4.20
2023-01-19T01:14:53.032Z,-4.29
2023-01-19T01:16:25.135Z,-4.30
2023-01-19T01:17:56.907Z,-4.33
2023-01-19T01:19:28.586Z,-4.27
2023-01-19T01:21:02.030Z,-4.30
2023-01-19T01:22:33.677Z,-4.28
2023-01-19T01:24:05.680Z,-4.36
2023-01-19T01:25:38.658Z,-4.39
2023-01-19T01:27:10.618Z,-4.43
2023-01-19T01:28:42.304Z,-4.38
2023-01-19T01:30:15.461Z,-4.32
2023-01-19T01:31:47.317Z,-4.35
2023-01-19T01:33:40.543Z,-4.41
2023-01-19T01:35:12.228Z,-4.38
2023-01-19T01:36:44.344Z,-4.45
2023-01-19T01:38:17.192Z,-4.45
2023-01-19T01:39:48.840Z,-4.45
2023-01-19T01:41:21.172Z,-4.21
2023-01-19T01:42:56.946Z,-4.34
2023-01-19T01:44:55.993Z,-4.44
2023-01-19T01:46:30.659Z,-4.51
2023-01-19T01:48:09.271Z,-4.53
2023-01-19T01:49:41.549Z,-4.62
2023-01-19T01:51:24.407Z,-4.49
2023-01-19T01:53:06.357Z,-4.52
2023-01-19T01:54:39.805Z,-4.55
2023-01-19T01:56:19.707Z,-4.56
2023-01-19T01:57:57.672Z,-4.59
2023-01-19T01:59:39.433Z,-4.59
2023-01-19T02:01:30.367Z,-4.66
2023-01-19T02:03:03.000Z,-4.69
2023-01-19T02:04:35.194Z,-4.77
2023-01-19T02:06:07.730Z,-4.84
2023-01-19T02:08:07.366Z,-4.91
2023-01-19T02:09:57.684Z,-4.94
2023-01-19T02:11:49.279Z,-4.93
2023-01-19T02:13:21.419Z,-5.00
2023-01-19T02:14:53.059Z,-5.04
2023-01-19T02:16:24.782Z,-5.07
2023-01-19T02:17:58.616Z,-5.06
2023-01-19T02:19:48.610Z,-5.04
2023-01-19T02:21:26.239Z,-5.05
2023-01-19T02:23:03.150Z,-5.08
2023-01-19T02:24:35.840Z,-5.19
2023-01-19T02:26:09.774Z,-5.23
2023-01-19T02:27:42.759Z,-5.22
2023-01-19T02:29:20.490Z,-5.16
2023-01-19T02:30:52.224Z,-5.11
2023-01-19T02:32:23.929Z,-5.16
2023-01-19T02:33:56.723Z,-5.18
2023-01-19T02:35:28.376Z,-5.24
2023-01-19T02:37:06.641Z,-5.27
2023-01-19T02:38:41.018Z,-5.33
2023-01-19T02:40:16.836Z,-5.29
2023-01-19T02:41:53.272Z,-5.20
2023-01-19T02:43:26.220Z,-5.31
2023-01-19T02:44:58.161Z,-5.19
2023-01-19T02:46:29.891Z,-5.23
2023-01-19T02:48:01.733Z,-5.24
2023-01-19T02:49:33.446Z,-5.30
2023-01-19T02:51:14.256Z,-5.35
2023-01-19T02:52:46.113Z,-5.14
2023-01-19T02:54:26.314Z,-5.14
2023-01-19T02:56:06.847Z,-5.33
2023-01-19T02:58:04.742Z,-5.32
2023-01-19T02:59:48.079Z,-5.39
2023-01-19T03:01:31.074Z,-5.40
2023-01-19T03:03:09.171Z,-5.37
2023-01-19T03:04:47.550Z,-5.28
2023-01-19T03:07:04.250Z,-5.31
2023-01-19T03:08:46.991Z,-5.43
2023-01-19T03:10:27.350Z,-5.44
2023-01-19T03:12:10.047Z,-5.45
2023-01-19T03:13:41.805Z,-5.37
2023-01-19T03:15:27.542Z,-5.40
2023-01-19T03:17:02.825Z,-5.37
2023-01-19T03:18:37.268Z,-5.44
2023-01-19T03:20:10.211Z,-5.43
2023-01-19T03:21:47.388Z,-5.49
2023-01-19T03:23:22.560Z,-5.56
2023-01-19T03:24:59.643Z,-5.62
2023-01-19T03:26:36.341Z,-5.61
2023-01-19T03:28:08.096Z,-5.60
2023-01-19T03:29:43.120Z,-5.63
2023-01-19T03:31:22.745Z,-5.61
2023-01-19T03:33:03.400Z,-5.65
2023-01-19T03:34:37.235Z,-5.54
2023-01-19T03:36:15.045Z,-5.43
2023-01-19T03:37:49.021Z,-5.48
2023-01-19T03:39:25.812Z,-5.43
2023-01-19T03:41:02.356Z,-5.35
2023-01-19T03:42:35.908Z,-5.39
2023-01-19T03:44:08.751Z,-5.40
2023-01-19T03:45:40.814Z,-5.38
2023-01-19T03:47:14.626Z,-5.43
2023-01-19T03:48:47.075Z,-5.51
2023-01-19T03:50:25.817Z,-5.51
2023-01-19T03:51:58.989Z,-5.59
2023-01-19T03:53:30.897Z,-5.66
2023-01-19T03:55:05.005Z,-5.43
2023-01-19T03:56:36.857Z,-5.39
2023-01-19T03:58:08.751Z,-5.45
2023-01-19T03:59:40.384Z,-5.32
2023-01-19T04:01:12.681Z,-5.39
2023-01-19T04:02:44.604Z,-5.44
2023-01-19T04:04:16.434Z,-5.43
2023-01-19T04:05:48.148Z,-5.43
2023-01-19T04:07:19.720Z,-5.49
2023-01-19T04:08:52.047Z,-5.56
2023-01-19T04:10:24.363Z,-5.59
2023-01-19T04:11:57.205Z,-5.72
2023-01-19T04:13:30.126Z,-5.64
2023-01-19T04:15:01.720Z,-5.64
2023-01-19T04:16:33.397Z,-5.59
2023-01-19T04:18:05.359Z,-5.56
2023-01-19T04:19:37.281Z,-5.52
2023-01-19T04:21:09.301Z,-5.49
2023-01-19T04:22:40.970Z,-5.46
2023-01-19T04:24:12.668Z,-5.49
2023-01-19T04:25:44.313Z,-5.51
2023-01-19T04:27:16.454Z,-5.42
2023-01-19T04:28:48.070Z,-5.39
2023-01-19T04:30:20.205Z,-5.31
2023-01-19T04:31:51.832Z,-5.22
2023-01-19T04:33:24.267Z,-5.22
2023-01-19T04:34:56.033Z,-5.24
2023-01-19T04:36:28.378Z,-5.31
2023-01-19T04:38:00.256Z,-5.30
2023-01-19T04:39:31.831Z,-5.25
2023-01-19T04:41:03.467Z,-5.21
2023-01-19T04:42:35.125Z,-5.24
2023-01-19T04:44:06.831Z,-5.21
2023-01-19T04:45:38.608Z,-5.24
2023-01-19T04:47:10.372Z,-5.20
2023-01-19T04:48:42.336Z,-5.18
2023-01-19T04:50:15.254Z,-5.14
2023-01-19T04:51:47.282Z,-5.09
2023-01-19T04:53:18.914Z,-5.14
2023-01-19T04:54:50.549Z,-5.13
2023-01-19T04:56:22.327Z,-5.17
2023-01-19T04:57:54.337Z,-5.12
2023-01-19T04:59:25.940Z,-5.14
2023-01-19T05:00:57.648Z,-5.11
2023-01-19T05:02:29.383Z,-5.11
2023-01-19T05:04:02.090Z,-5.14
2023-01-19T05:05:34.217Z,-5.15
2023-01-19T05:07:05.943Z,-5.17
2023-01-19T05:08:37.821Z,-5.01
2023-01-19T05:10:10.144Z,-5.11
2023-01-19T05:11:41.835Z,-5.15
2023-01-19T05:13:14.161Z,-5.20
2023-01-19T05:14:46.001Z,-5.23
2023-01-19T05:16:17.728Z,-5.14
2023-01-19T05:17:49.449Z,-5.17
2023-01-19T05:19:21.241Z,-5.18
2023-01-19T05:20:52.886Z,-5.18
2023-01-19T05:22:24.593Z,-5.24
2023-01-19T05:23:56.292Z,-5.25
2023-01-19T05:25:27.990Z,-5.22
2023-01-19T05:26:59.647Z,-5.20
2023-01-19T05:28:33.002Z,-5.10
2023-01-19T05:30:06.061Z,-4.92
2023-01-19T05:31:37.938Z,-4.98
2023-01-19T05:33:09.568Z,-5.01
2023-01-19T05:34:41.324Z,-5.06
2023-01-19T05:36:12.945Z,-5.08
2023-01-19T05:37:44.622Z,-5.07
2023-01-19T05:39:16.493Z,-5.12
2023-01-19T05:40:48.761Z,-5.21
2023-01-19T05:42:20.687Z,-5.28
2023-01-19T05:43:52.265Z,-5.35
2023-01-19T05:45:23.901Z,-5.36
2023-01-19T05:46:55.651Z,-5.40
2023-01-19T05:48:27.439Z,-5.35
2023-01-19T05:49:59.191Z,-5.33
2023-01-19T05:51:37.968Z,-5.36
2023-01-19T05:53:09.656Z,-5.34
2023-01-19T05:54:41.326Z,-5.34
2023-01-19T05:56:13.038Z,-5.37
2023-01-19T05:57:44.693Z,-5.40
2023-01-19T05:59:21.504Z,-5.41
2023-01-19T06:00:53.125Z,-5.43
2023-01-19T06:02:28.702Z,-5.43
2023-01-19T06:04:00.767Z,-5.47
2023-01-19T06:05:32.819Z,-5.48
2023-01-19T06:07:06.296Z,-5.54
2023-01-19T06:08:37.914Z,-5.51
2023-01-19T06:10:10.166Z,-5.51
2023-01-19T06:11:41.939Z,-5.54
2023-01-19T06:13:13.586Z,-5.59
2023-01-19T06:14:45.228Z,-5.57
2023-01-19T06:16:16.873Z,-5.58
2023-01-19T06:17:48.524Z,-5.61
2023-01-19T06:19:20.215Z,-5.62
2023-01-19T06:20:58.405Z,-5.66
2023-01-19T06:22:30.093Z,-5.72
2023-01-19T06:24:01.685Z,-5.76
2023-01-19T06:25:33.352Z,-5.63
2023-01-19T06:27:06.568Z,-5.67
2023-01-19T06:28:38.311Z,-5.74
2023-01-19T06:30:10.651Z,-5.65
2023-01-19T06:31:42.695Z,-5.72
2023-01-19T06:33:14.398Z,-5.71
2023-01-19T06:34:46.812Z,-5.73
2023-01-19T06:36:18.581Z,-5.69
2023-01-19T06:37:52.901Z,-5.68
2023-01-19T06:39:24.604Z,-5.71
2023-01-19T06:41:03.236Z,-5.69
2023-01-19T06:42:34.964Z,-5.70
2023-01-19T06:44:06.577Z,-5.73
2023-01-19T06:45:39.270Z,-5.76
2023-01-19T06:47:14.992Z,-5.78
2023-01-19T06:48:48.140Z,-5.69
2023-01-19T06:50:19.816Z,-5.78
2023-01-19T06:51:52.640Z,-5.80
2023-01-19T06:53:24.364Z,-5.85
2023-01-19T06:54:56.642Z,-5.86
2023-01-19T06:56:28.575Z,-5.74
2023-01-19T06:58:00.839Z,-5.81
2023-01-19T06:59:32.555Z,-5.79
2023-01-19T07:01:05.882Z,-5.70
2023-01-19T07:02:42.515Z,-5.73
2023-01-19T07:04:15.243Z,-5.75
2023-01-19T07:05:47.079Z,-5.77
2023-01-19T07:07:18.746Z,-5.81
2023-01-19T07:08:50.444Z,-5.82
2023-01-19T07:10:23.297Z,-5.83
2023-01-19T07:11:55.251Z,-5.82
2023-01-19T07:13:27.205Z,-5.87
2023-01-19T07:14:59.075Z,-5.91
2023-01-19T07:16:31.282Z,-5.89
2023-01-19T07:18:07.636Z,-5.86
2023-01-19T07:19:39.225Z,-5.92
2023-01-19T07:21:10.890Z,-5.95
2023-01-19T07:22:46.689Z,-5.87
2023-01-19T07:24:18.386Z,-5.96
2023-01-19T07:25:50.047Z,-5.87
2023-01-19T07:27:21.703Z,-5.82
2023-01-19T07:28:53.628Z,-5.88
2023-01-19T07:30:25.868Z,-5.83
2023-01-19T07:31:57.867Z,-5.82
2023-01-19T07:33:29.857Z,-5.82
2023-01-19T07:35:01.676Z,-5.81
2023-01-19T07:36:33.609Z,-5.69
2023-01-19T07:38:05.191Z,-5.62
2023-01-19T07:39:36.972Z,-5.69
2023-01-19T07:41:10.790Z,-5.72
2023-01-19T07:42:50.331Z,-5.70
2023-01-19T07:44:22.405Z,-5.71
2023-01-19T07:45:58.738Z,-5.76
2023-01-19T07:47:30.364Z,-5.79
2023-01-19T07:49:02.139Z,-5.74
2023-01-19T07:50:33.978Z,-5.71
2023-01-19T07:52:06.123Z,-5.70
2023-01-19T07:53:38.440Z,-5.67
2023-01-19T07:55:10.351Z,-5.67
2023-01-19T07:56:41.984Z,-5.57
2023-01-19T07:58:13.719Z,-5.50
2023-01-19T07:59:45.345Z,-5.46
2023-01-19T08:01:17.052Z,-5.48
2023-01-19T08:02:51.891Z,-5.48
2023-01-19T08:04:23.905Z,-5.51
2023-01-19T08:05:57.098Z,-5.48
2023-01-19T08:07:28.742Z,-5.52
2023-01-19T08:09:00.613Z,-5.54
2023-01-19T08:10:33.099Z,-5.49
2023-01-19T08:12:05.092Z,-5.41
2023-01-19T08:13:36.966Z,-5.45
2023-01-19T08:15:10.387Z,-5.43
2023-01-19T08:16:42.127Z,-5.41
2023-01-19T08:18:15.698Z,-5.33
2023-01-19T08:19:47.411Z,-5.36
2023-01-19T08:21:19.179Z,-5.36
2023-01-19T08:22:51.355Z,-5.34
2023-01-19T08:24:25.787Z,-5.30
2023-01-19T08:25:57.526Z,-5.27
2023-01-19T08:27:30.127Z,-5.28
2023-01-19T08:29:04.966Z,-5.22
2023-01-19T08:30:37.393Z,-5.19
2023-01-19T08:32:09.584Z,-5.16
2023-01-19T08:33:42.964Z,-5.05
2023-01-19T08:35:15.745Z,-5.01
2023-01-19T08:36:47.809Z,-5.03
2023-01-19T08:38:19.781Z,-4.98
2023-01-19T08:39:53.619Z,-4.95
2023-01-19T08:41:25.281Z,-4.89
2023-01-19T08:43:03.727Z,-4.90
2023-01-19T08:44:36.632Z,-4.75
2023-01-19T08:46:11.586Z,-4.73
2023-01-19T08:47:43.359Z,-4.80
2023-01-19T08:49:15.881Z,-4.76
2023-01-19T08:50:49.003Z,-4.73
2023-01-19T08:52:21.228Z,-4.74
2023-01-19T08:53:52.910Z,-4.69
2023-01-19T08:55:25.653Z,-4.64
2023-01-19T08:56:57.420Z,-4.61
2023-01-19T08:58:29.564Z,-4.60
2023-01-19T09:00:01.549Z,-4.51
2023-01-19T09:01:33.521Z,-4.30
2023-01-19T09:03:07.244Z,-4.11
2023-01-19T09:04:39.052Z,-3.90
2023-01-19T09:06:13.293Z,-3.85
2023-01-19T09:07:48.060Z,-3.87
2023-01-19T09:09:19.765Z,-3.69
2023-01-19T09:10:51.732Z,-3.72
2023-01-19T09:12:23.447Z,-3.76
2023-01-19T09:13:55.150Z,-3.94
2023-01-19T09:15:26.910Z,-4.05
2023-01-19T09:16:59.264Z,-4.04
2023-01-19T09:18:31.283Z,-3.74
2023-01-19T09:20:04.504Z,-3.58
2023-01-19T09:21:36.134Z,-3.35
2023-01-19T09:23:11.754Z,-3.26
2023-01-19T09:24:43.433Z,-3.10
2023-01-19T09:26:15.172Z,-2.80
2023-01-19T09:27:46.851Z,-2.59
2023-01-19T09:29:18.590Z,-2.41
2023-01-19T09:30:50.315Z,-2.19
2023-01-19T09:32:22.944Z,-2.20
2023-01-19T09:33:54.563Z,-2.36
2023-01-19T09:35:26.285Z,-2.50
2023-01-19T09:36:58.164Z,-2.57
2023-01-19T09:38:32.915Z,-2.22
2023-01-19T09:40:06.257Z,-2.03
2023-01-19T09:41:42.039Z,-1.82
2023-01-19T09:43:35.315Z,-1.26
2023-01-19T09:45:27.320Z,-1.08
2023-01-19T09:47:03.109Z,-0.84
2023-01-19T09:48:45.842Z,-0.74
2023-01-19T09:50:27.716Z,-0.73
2023-01-19T09:51:59.479Z,-0.65
2023-01-19T09:53:40.432Z,-0.54
2023-01-19T09:55:21.591Z,-0.63
2023-01-19T09:56:54.081Z,-0.65
2023-01-19T09:58:26.060Z,-0.92
2023-01-19T10:00:00.724Z,-1.01
2023-01-19T10:02:08.001Z,-1.11
2023-01-19T10:03:41.483Z,-1.03
2023-01-19T10:05:25.263Z,-1.04
2023-01-19T10:07:15.041Z,-1.06
2023-01-19T10:08:52.493Z,-1.03
2023-01-19T10:10:27.132Z,-0.96
2023-01-19T10:12:08.723Z,-1.05
2023-01-19T10:13:49.854Z,-1.17
2023-01-19T10:15:47.899Z,-1.14
2023-01-19T10:17:38.666Z,-1.15
2023-01-19T10:19:33.731Z,-1.19
2023-01-19T10:21:10.602Z,-1.19
2023-01-19T10:22:44.450Z,-1.11
2023-01-19T10:24:28.333Z,-1.23
2023-01-19T10:26:03.310Z,-1.11
2023-01-19T10:27:37.833Z,-1.11
2023-01-19T10:29:40.850Z,-1.00
2023-01-19T10:31:14.015Z,-0.93
2023-01-19T10:32:45.767Z,-0.77
2023-01-19T10:34:23.393Z,-0.59
2023-01-19T10:35:55.638Z,-0.21
2023-01-19T10:37:40.701Z,-0.10
2023-01-19T10:39:17.028Z,-0.02
2023-01-19T10:40:57.414Z,-0.06
2023-01-19T10:42:30.932Z,-0.13
2023-01-19T10:44:05.511Z,-0.24
2023-01-19T10:45:37.895Z,-0.41
2023-01-19T10:47:17.289Z,-0.41
2023-01-19T10:48:51.784Z,-0.39
2023-01-19T10:50:32.565Z,-0.50
2023-01-19T10:52:07.713Z,-0.47
2023-01-19T10:53:42.737Z,-0.36
2023-01-19T10:55:26.293Z,-0.29
2023-01-19T10:57:07.507Z,-0.30
2023-01-19T10:58:40.565Z,-0.44
2023-01-19T11:00:40.245Z,-0.40
2023-01-19T11:02:18.757Z,-0.27
2023-01-19T11:03:53.365Z,-0.15
2023-01-19T11:05:27.863Z,-0.01
2023-01-19T11:07:25.748Z,0.12
2023-01-19T11:09:15.318Z,0.17
2023-01-19T11:10:56.132Z,0.04
2023-01-19T11:12:27.884Z,0.12
2023-01-19T11:14:07.360Z,0.17
2023-01-19T11:15:59.198Z,0.11
2023-01-19T11:17:30.837Z,0.29
2023-01-19T11:19:03.566Z,0.38
2023-01-19T11:20:55.509Z,0.45
2023-01-19T11:22:33.819Z,0.52
2023-01-19T11:24:10.700Z,0.34
2023-01-19T11:25:46.475Z,0.55
2023-01-19T11:27:21.062Z,0.79
2023-01-19T11:28:56.011Z,0.70
2023-01-19T11:30:28.042Z,0.62
2023-01-19T11:32:19.196Z,0.82
2023-01-19T11:33:54.240Z,0.82
2023-01-19T11:35:32.123Z,0.80
2023-01-19T11:37:23.512Z,0.70
2023-01-19T11:39:01.443Z,0.77
2023-01-19T11:40:34.951Z,0.79
2023-01-19T11:42:11.235Z,0.77
2023-01-19T11:43:49.013Z,0.85
2023-01-19T11:45:22.514Z,1.15
2023-01-19T11:46:58.794Z,1.48
2023-01-19T11:48:39.647Z,5.72
2023-01-19T11:50:14.473Z,10.66
2023-01-19T11:51:56.636Z,10.46
2023-01-19T11:53:34.026Z,6.54
2023-01-19T11:55:17.750Z,4.55
2023-01-19T11:56:52.055Z,3.42
2023-01-19T11:58:25.809Z,3.08
2023-01-19T12:00:03.468Z,3.05
2023-01-19T12:01:52.297Z,2.92
2023-01-19T12:03:30.590Z,2.45
2023-01-19T12:05:11.228Z,2.70
2023-01-19T12:06:50.011Z,2.77
2023-01-19T12:08:30.762Z,2.46
2023-01-19T12:10:20.741Z,2.43
2023-01-19T12:12:00.526Z,2.22
2023-01-19T12:13:33.690Z,2.36
2023-01-19T12:15:09.130Z,1.88
2023-01-19T12:16:43.171Z,1.80
2023-01-19T12:18:43.848Z,1.97
2023-01-19T12:20:24.497Z,2.01
2023-01-19T12:21:56.542Z,1.87
2023-01-19T12:23:31.169Z,1.67
2023-01-19T12:25:20.726Z,1.84
2023-01-19T12:27:01.918Z,1.56
2023-01-19T12:28:38.813Z,1.72
2023-01-19T12:30:30.790Z,1.89
2023-01-19T12:32:14.217Z,1.91
2023-01-19T12:33:46.390Z,1.91
2023-01-19T12:35:56.401Z,2.02
2023-01-19T12:37:28.996Z,1.86
2023-01-19T12:39:17.028Z,1.91
2023-01-19T12:40:48.759Z,1.82
2023-01-19T12:42:21.487Z,1.87
2023-01-19T12:44:12.006Z,1.94
2023-01-19T12:45:45.869Z,2.07
2023-01-19T12:47:24.446Z,2.06
2023-01-19T12:49:10.223Z,2.02
2023-01-19T12:50:46.523Z,1.69
2023-01-19T12:52:27.125Z,1.82
2023-01-19T12:54:02.223Z,2.07
2023-01-19T12:55:37.717Z,1.80
2023-01-19T12:57:29.439Z,1.46
2023-01-19T12:59:01.594Z,1.53
2023-01-19T13:00:42.816Z,1.60
2023-01-19T13:02:20.168Z,1.66
2023-01-19T13:04:03.734Z,1.88
2023-01-19T13:05:38.559Z,2.14
2023-01-19T13:07:16.805Z,2.10
2023-01-19T13:09:00.960Z,2.15
2023-01-19T13:11:00.773Z,2.19
2023-01-19T13:12:32.578Z,2.22
2023-01-19T13:14:04.116Z,2.21
2023-01-19T13:15:36.307Z,2.12
2023-01-19T13:17:28.510Z,2.18
2023-01-19T13:19:06.566Z,2.18
2023-01-19T13:20:50.543Z,2.07
2023-01-19T13:22:49.978Z,1.96
2023-01-19T13:24:23.507Z,1.88
2023-01-19T13:26:02.920Z,1.94
2023-01-19T13:27:35.319Z,1.77
2023-01-19T13:29:13.709Z,1.65
2023-01-19T13:31:05.161Z,1.38
2023-01-19T13:32:40.328Z,1.36
2023-01-19T13:34:14.737Z,1.43
2023-01-19T13:35:53.574Z,1.48
2023-01-19T13:37:38.938Z,1.50
2023-01-19T13:39:34.223Z,1.43
2023-01-19T13:41:05.787Z,1.33
2023-01-19T13:42:40.320Z,1.24
2023-01-19T13:44:26.204Z,1.08
2023-01-19T13:45:59.157Z,1.11
2023-01-19T13:47:45.704Z,1.11
2023-01-19T13:49:22.753Z,1.11
2023-01-19T13:51:04.130Z,1.09
2023-01-19T13:52:35.780Z,1.04
2023-01-19T13:54:18.003Z,1.00
2023-01-19T13:56:17.187Z,0.95
2023-01-19T13:57:50.279Z,0.91
2023-01-19T13:59:21.952Z,0.93
2023-01-19T14:00:53.529Z,0.96
2023-01-19T14:02:25.294Z,0.93
2023-01-19T14:03:57.129Z,0.94
2023-01-19T14:05:36.990Z,0.98
2023-01-19T14:07:22.560Z,1.00
2023-01-19T14:09:26.708Z,0.98
2023-01-19T14:11:00.144Z,0.87
2023-01-19T14:12:32.378Z,0.81
2023-01-19T14:14:04.060Z,0.81
2023-01-19T14:15:35.692Z,0.84
2023-01-19T14:17:28.685Z,0.79
2023-01-19T14:19:04.746Z,0.82
2023-01-19T14:20:37.203Z,0.83
2023-01-19T14:22:08.825Z,0.90
2023-01-19T14:24:08.343Z,0.92
2023-01-19T14:25:44.866Z,0.87
2023-01-19T14:27:20.113Z,0.84
2023-01-19T14:28:51.735Z,0.82
2023-01-19T14:30:26.073Z,0.86
2023-01-19T14:32:00.845Z,0.89
2023-01-19T14:33:52.704Z,0.86
2023-01-19T14:35:25.088Z,0.81
2023-01-19T14:36:57.074Z,0.81
2023-01-19T14:38:28.751Z,0.77
2023-01-19T14:40:13.211Z,0.75
2023-01-19T14:41:52.353Z,0.75
2023-01-19T14:43:28.517Z,0.75
2023-01-19T14:45:01.366Z,0.75
2023-01-19T14:46:33.142Z,0.76
2023-01-19T14:48:06.633Z,0.77
2023-01-19T14:49:41.544Z,0.81
2023-01-19T14:51:18.528Z,0.79
2023-01-19T14:52:56.037Z,0.82
2023-01-19T14:54:40.595Z,0.78
2023-01-19T14:56:12.287Z,0.73
2023-01-19T14:57:44.142Z,0.73
2023-01-19T14:59:15.817Z,0.74
2023-01-19T15:00:49.341Z,0.74
2023-01-19T15:02:21.565Z,0.79
2023-01-19T15:03:53.259Z,0.77
2023-01-19T15:05:25.003Z,0.75
2023-01-19T15:06:56.762Z,0.76
2023-01-19T15:08:34.250Z,0.78
2023-01-19T15:10:16.021Z,0.79
2023-01-19T15:11:50.185Z,0.77
2023-01-19T15:13:23.916Z,0.73
2023-01-19T15:14:56.119Z,0.70
2023-01-19T15:16:29.945Z,0.69
2023-01-19T15:18:04.117Z,0.66
2023-01-19T15:19:35.732Z,0.68
2023-01-19T15:21:14.204Z,0.69
2023-01-19T15:22:46.147Z,0.64
2023-01-19T15:24:18.188Z,0.63
2023-01-19T15:25:50.681Z,0.64
2023-01-19T15:27:23.376Z,0.62
2023-01-19T15:28:56.570Z,0.57
2023-01-19T15:30:33.480Z,0.56
2023-01-19T15:32:05.557Z,0.52
2023-01-19T15:33:37.327Z,0.52
2023-01-19T15:35:17.948Z,0.54
2023-01-19T15:36:49.655Z,0.60
2023-01-19T15:38:21.439Z,0.59
2023-01-19T15:39:53.117Z,0.56
2023-01-19T15:41:32.246Z,0.52
2023-01-19T15:43:04.077Z,0.65
2023-01-19T15:44:35.732Z,0.81
2023-01-19T15:46:07.673Z,0.64
2023-01-19T15:47:39.584Z,0.55
2023-01-19T15:49:11.225Z,0.49
2023-01-19T15:50:44.881Z,0.46
2023-01-19T15:52:17.196Z,0.52
2023-01-19T15:53:49.726Z,0.49
2023-01-19T15:55:21.442Z,0.48
2023-01-19T15:56:53.162Z,0.44
2023-01-19T15:58:25.185Z,0.42
2023-01-19T15:59:56.827Z,0.38
2023-01-19T16:01:32.336Z,0.34
2023-01-19T16:03:04.406Z,0.33
2023-01-19T16:04:36.116Z,0.31
2023-01-19T16:06:08.283Z,0.34
2023-01-19T16:07:39.978Z,0.34
2023-01-19T16:09:16.759Z,0.35
2023-01-19T16:10:48.350Z,0.37
2023-01-19T16:12:20.038Z,0.32
2023-01-19T16:13:51.909Z,0.28
2023-01-19T16:15:23.712Z,0.35
2023-01-19T16:16:55.454Z,0.50
2023-01-19T16:18:27.172Z,0.41
2023-01-19T16:19:58.835Z,0.35
2023-01-19T16:21:30.516Z,0.35
2023-01-19T16:23:14.467Z,0.33
2023-01-19T16:24:46.956Z,0.30
2023-01-19T16:26:30.618Z,0.27
2023-01-19T16:28:02.285Z,0.28
2023-01-19T16:29:33.901Z,0.22
2023-01-19T16:31:05.668Z,0.22
2023-01-19T16:32:38.408Z,0.21
2023-01-19T16:34:10.426Z,0.26
2023-01-19T16:35:42.045Z,0.33
2023-01-19T16:37:13.724Z,0.30
2023-01-19T16:38:45.339Z,0.25
2023-01-19T16:40:17.300Z,0.25
2023-01-19T16:41:48.944Z,0.25
2023-01-19T16:43:20.594Z,0.26
2023-01-19T16:44:52.348Z,0.26
2023-01-19T16:46:38.883Z,0.26
2023-01-19T16:48:10.696Z,0.23
2023-01-19T16:49:42.334Z,0.28
2023-01-19T16:51:14.005Z,0.24
2023-01-19T16:52:46.334Z,0.28
2023-01-19T16:54:21.059Z,0.29
2023-01-19T16:55:53.208Z,0.34
2023-01-19T16:57:24.931Z,0.31
2023-01-19T16:58:58.725Z,0.25
2023-01-19T17:00:30.393Z,0.19
2023-01-19T17:02:02.626Z,0.18
2023-01-19T17:03:34.786Z,0.22
2023-01-19T17:05:07.268Z,0.27
2023-01-19T17:06:39.395Z,0.26
2023-01-19T17:08:11.026Z,0.31
2023-01-19T17:09:42.718Z,0.20
2023-01-19T17:11:22.647Z,0.22
2023-01-19T17:12:54.330Z,0.25
2023-01-19T17:14:26.158Z,0.12
2023-01-19T17:16:01.885Z,0.07
2023-01-19T17:17:36.215Z,0.11
2023-01-19T17:19:08.985Z,0.12
2023-01-19T17:20:40.668Z,0.16
2023-01-19T17:22:13.469Z,0.11
2023-01-19T17:23:47.467Z,0.10
2023-01-19T17:25:19.293Z,0.25
2023-01-19T17:26:50.925Z,0.17
2023-01-19T17:28:23.518Z,0.02
2023-01-19T17:29:55.276Z,0.05
2023-01-19T17:31:27.232Z,0.06
2023-01-19T17:32:58.959Z,0.03
2023-01-19T17:34:30.640Z,0.11
2023-01-19T17:36:08.114Z,0.11
2023-01-19T17:37:39.946Z,0.12
2023-01-19T17:39:14.887Z,0.07
2023-01-19T17:40:46.692Z,0.11
2023-01-19T17:42:18.434Z,0.04
2023-01-19T17:43:51.191Z,-0.01
2023-01-19T17:45:22.998Z,-0.04
2023-01-19T17:46:54.684Z,-0.03
2023-01-19T17:48:26.339Z,-0.05
2023-01-19T17:49:58.013Z,-0.10
2023-01-19T17:51:30.908Z,-0.12
2023-01-19T17:53:02.750Z,-0.07
2023-01-19T17:54:34.505Z,-0.10
2023-01-19T17:56:14.862Z,-0.07
2023-01-19T17:57:46.517Z,-0.02
2023-01-19T17:59:18.232Z,0.05
2023-01-19T18:00:49.981Z,-0.08
2023-01-19T18:02:24.405Z,-0.16
2023-01-19T18:03:56.789Z,-0.12
2023-01-19T18:05:28.487Z,-0.17
2023-01-19T18:07:00.202Z,-0.12
2023-01-19T18:08:32.856Z,-0.13
2023-01-19T18:10:06.462Z,-0.15
2023-01-19T18:11:38.255Z,-0.19
2023-01-19T18:13:09.975Z,-0.20
2023-01-19T18:14:41.795Z,-0.26
2023-01-19T18:16:16.831Z,-0.30
2023-01-19T18:17:48.530Z,-0.23
2023-01-19T18:19:22.237Z,-0.22
2023-01-19T18:20:57.284Z,-0.20
2023-01-19T18:22:28.976Z,-0.17
2023-01-19T18:24:02.941Z,-0.26
2023-01-19T18:25:34.629Z,-0.17
2023-01-19T18:27:06.289Z,-0.20
2023-01-19T18:28:38.166Z,-0.23
2023-01-19T18:30:10.662Z,-0.28
2023-01-19T18:31:42.936Z,-0.31
2023-01-19T18:33:14.575Z,-0.32
2023-01-19T18:34:46.267Z,-0.34
2023-01-19T18:36:18.437Z,-0.25
2023-01-19T18:37:50.578Z,-0.17
2023-01-19T18:39:22.327Z,-0.19
2023-01-19T18:41:02.671Z,-0.27
2023-01-19T18:42:34.415Z,-0.31
2023-01-19T18:44:06.183Z,-0.34
2023-01-19T18:45:39.853Z,-0.28
2023-01-19T18:47:11.485Z,-0.30
2023-01-19T18:48:43.292Z,-0.35
2023-01-19T18:50:19.477Z,-0.40
2023-01-19T18:51:51.079Z,-0.39
2023-01-19T18:53:23.580Z,-0.40
2023-01-19T18:54:55.215Z,-0.38
2023-01-19T18:56:27.346Z,-0.35
2023-01-19T18:57:59.182Z,-0.43
2023-01-19T18:59:31.050Z,-0.47
2023-01-19T19:01:02.879Z,-0.31
2023-01-19T19:02:34.601Z,-0.32
2023-01-19T19:04:08.136Z,-0.38
2023-01-19T19:05:40.117Z,-0.29
2023-01-19T19:07:11.783Z,-0.45
2023-01-19T19:08:44.211Z,-0.50
2023-01-19T19:10:16.248Z,-0.52
2023-01-19T19:11:47.957Z,-0.55
2023-01-19T19:13:21.866Z,-0.53
2023-01-19T19:14:53.531Z,-0.52
2023-01-19T19:16:25.731Z,-0.49
2023-01-19T19:17:57.424Z,-0.51
2023-01-19T19:19:29.348Z,-0.49
2023-01-19T19:21:08.831Z,-0.43
2023-01-19T19:22:40.864Z,-0.45
2023-01-19T19:24:13.478Z,-0.49
2023-01-19T19:25:45.154Z,-0.51
2023-01-19T19:27:17.805Z,-0.53
2023-01-19T19:28:49.457Z,-0.52
2023-01-19T19:30:21.331Z,-0.46
2023-01-19T19:31:52.979Z,-0.41
2023-01-19T19:33:24.903Z,-0.37
2023-01-19T19:34:58.972Z,-0.35
2023-01-19T19:36:31.830Z,-0.29
2023-01-19T19:38:03.636Z,-0.39
2023-01-19T19:39:36.038Z,-0.53
2023-01-19T19:41:09.571Z,-0.55
2023-01-19T19:42:41.253Z,-0.52
2023-01-19T19:44:13.137Z,-0.44
2023-01-19T19:45:44.886Z,-0.57
2023-01-19T19:47:16.639Z,-0.64
2023-01-19T19:48:49.047Z,-0.73
2023-01-19T19:50:20.728Z,-0.80
2023-01-19T19:51:52.500Z,-0.80
2023-01-19T19:53:24.174Z,-0.74
2023-01-19T19:54:56.138Z,-0.81
2023-01-19T19:56:30.903Z,-0.73
2023-01-19T19:58:02.597Z,-0.71
2023-01-19T19:59:34.273Z,-0.72
2023-01-19T20:01:21.018Z,-0.76
2023-01-19T20:02:52.694Z,-0.74
2023-01-19T20:04:25.443Z,-0.72
2023-01-19T20:06:06.463Z,-0.69
2023-01-19T20:07:39.174Z,-0.76
2023-01-19T20:09:15.691Z,-0.84
2023-01-19T20:10:47.511Z,-0.75
2023-01-19T20:12:19.197Z,-0.83
2023-01-19T20:13:51.043Z,-0.77
2023-01-19T20:15:22.693Z,-0.85
2023-01-19T20:16:54.577Z,-0.73
2023-01-19T20:18:26.308Z,-0.78
2023-01-19T20:19:59.196Z,-0.77
2023-01-19T20:21:34.173Z,-0.73
2023-01-19T20:23:06.588Z,-0.76
2023-01-19T20:24:39.005Z,-0.78
2023-01-19T20:26:12.467Z,-0.73
2023-01-19T20:27:45.032Z,-0.75
2023-01-19T20:29:17.531Z,-0.79
2023-01-19T20:30:49.654Z,-0.92
2023-01-19T20:32:21.415Z,-0.92
2023-01-19T20:33:55.046Z,-0.84
2023-01-19T20:35:27.158Z,-0.88